»·PEaware :: N902SQ KTEX-KAPA

N902SQ :: KTEX-KAPA

FLIGHT INFORMATION

Flight Status: Arrived
Operator: Privately registered:
United States
More flights under this callsign
Pilot: Gabor H. (24209)
Aircraft: SOCATA TBM-900
(TBM9)
More flights by this aircraft type
Origin: KTEX Telluride Regl
United States
Destination: KAPA Centennial
United States
More flights between these airports :: More routes between these airports
Route: ETL HBU LARKS2
File this flight plan on PilotEdge
Remarks:
Altitude:
(Current/Filed)
25,000ft
Speed:
(Current/Filed)
300kts
Departed: 13-Jun-23 10:01 AM
Arrived: 13-Jun-23 10:50 AM
Distance/Time
Traveled:
173nm/0:49
Distance/Time
To Go:
Arrived

Flight Plot

Page will automatically refresh every two minutes.

Flight plan parsing failed; only flown route is shown


Map Options




Map Legend


Flown Route
Filed Route
Departure Airport
Arrival Airport
Navaid (VOR, NDB)
Fix

Horizontal Profiles

Position Reports

Time Latitude Longitude Heading Altitude Ground
Speed
13-Jun-23 09:49 37.954585 -107.902747 284 9073ft 0kts
13-Jun-23 09:50 37.954585 -107.902747 284 9073ft 0kts
13-Jun-23 09:51 37.954585 -107.902747 284 9073ft 0kts
13-Jun-23 09:52 37.954585 -107.902747 284 9073ft 0kts
13-Jun-23 09:53 37.954585 -107.902747 284 9073ft 0kts
13-Jun-23 09:54 37.954585 -107.902747 284 9073ft 0kts
13-Jun-23 09:55 37.954585 -107.902747 284 9073ft 0kts
13-Jun-23 09:56 37.954585 -107.902747 284 9073ft 0kts
13-Jun-23 09:57 37.954585 -107.902747 284 9073ft 0kts
13-Jun-23 09:58 37.953352 -107.901126 113 9073ft 10kts
13-Jun-23 09:59 37.952457 -107.896981 118 9073ft 10kts
13-Jun-23 10:00 37.953909 -107.908978 284 9102ft 118kts
13-Jun-23 10:01 37.971016 -107.956388 289 10947ft 152kts
13-Jun-23 10:02 37.983107 -108.006326 288 13181ft 149kts
13-Jun-23 10:03 37.994776 -108.057503 288 15517ft 156kts
13-Jun-23 10:04 38.010813 -108.128184 287 15530ft 241kts
13-Jun-23 10:05 38.028592 -108.206920 287 17032ft 219kts
13-Jun-23 10:06 38.063583 -108.248673 30 18845ft 220kts
13-Jun-23 10:07 38.073868 -108.172833 72 20830ft 225kts
13-Jun-23 10:08 38.095425 -108.098878 62 22810ft 227kts
13-Jun-23 10:09 38.120793 -108.024160 61 24815ft 235kts
13-Jun-23 10:10 38.149243 -107.941096 62 25220ft 282kts
13-Jun-23 10:11 38.181876 -107.845393 63 25170ft 303kts
13-Jun-23 10:12 38.215356 -107.746859 65 25129ft 305kts
13-Jun-23 10:13 38.249052 -107.647130 66 25100ft 307kts
13-Jun-23 10:14 38.282605 -107.547608 66 25100ft 307kts
13-Jun-23 10:15 38.316176 -107.447728 66 25116ft 306kts
13-Jun-23 10:16 38.349540 -107.348125 66 25142ft 306kts
13-Jun-23 10:17 38.382865 -107.248292 66 25164ft 306kts
13-Jun-23 10:18 38.416178 -107.148154 66 25164ft 307kts
13-Jun-23 10:19 38.449338 -107.048129 66 25164ft 307kts
13-Jun-23 10:20 38.482527 -106.947505 66 25164ft 307kts
13-Jun-23 10:21 38.515469 -106.847260 66 25164ft 307kts
13-Jun-23 10:22 38.548475 -106.746468 66 25164ft 307kts
13-Jun-23 10:23 38.581273 -106.645955 66 25164ft 307kts
13-Jun-23 10:24 38.614107 -106.544975 66 25164ft 307kts
13-Jun-23 10:25 38.646741 -106.444253 66 25166ft 307kts
13-Jun-23 10:26 38.679244 -106.343577 67 25163ft 306kts
13-Jun-23 10:27 38.711638 -106.242886 67 25157ft 306kts
13-Jun-23 10:28 38.743901 -106.142238 67 25155ft 306kts
13-Jun-23 10:29 38.778759 -106.043617 49 25145ft 305kts
13-Jun-23 10:30 38.833896 -105.960709 49 25159ft 305kts
13-Jun-23 10:31 38.888279 -105.877392 49 25155ft 306kts
13-Jun-23 10:32 38.942930 -105.793318 49 24845ft 315kts
13-Jun-23 10:33 39.000622 -105.704344 49 23414ft 332kts
13-Jun-23 10:34 39.059467 -105.613305 49 21939ft 330kts
13-Jun-23 10:35 39.117704 -105.522946 49 20484ft 325kts
13-Jun-23 10:36 39.174708 -105.434260 49 19060ft 320kts
13-Jun-23 10:37 39.230625 -105.347028 50 17663ft 312kts
13-Jun-23 10:38 39.284951 -105.262041 50 16487ft 307kts
13-Jun-23 10:39 39.338395 -105.178234 50 14989ft 279kts
13-Jun-23 10:40 39.342702 -105.093200 98 13885ft 227kts
13-Jun-23 10:41 39.333995 -105.014165 97 12009ft 219kts
13-Jun-23 10:42 39.325442 -104.938338 97 10003ft 210kts
13-Jun-23 10:43 39.341383 -104.877878 28 9016ft 192kts
13-Jun-23 10:44 39.386475 -104.840540 355 9009ft 203kts
13-Jun-23 10:45 39.443611 -104.845028 358 8183ft 202kts
13-Jun-23 10:46 39.491829 -104.847207 358 7271ft 150kts
13-Jun-23 10:47 39.529099 -104.848927 359 6509ft 114kts
13-Jun-23 10:48 39.558874 -104.850309 358 5889ft 87kts
13-Jun-23 10:49 39.567779 -104.849527 27 5887ft 1kts
13-Jun-23 10:50 39.568685 -104.849175 55 5887ft 13kts
13-Jun-23 10:51 39.568236 -104.847955 178 5887ft 0kts
13-Jun-23 10:52 39.568237 -104.847955 178 5887ft 0kts
13-Jun-23 10:53 39.568237 -104.847955 178 5887ft 0kts

Navigation Log

Ident Type
Flight plan parsing failed, navigation log unavailable